Time;durP1;ratioP1;P1;durP2;ratioP2;P2;SDS_P1;SDS_P2;PMS_P1;PMS_P2;Temp;Humidity;BMP_temperature;BMP_pressure;BME280_temperature;BME280_humidity;BME280_pressure;Samples;Min_cycle;Max_cycle;Signal;HPM_P1;HPM_P2
2024/03/06 00:01:06;;;;;;;;;40.25;37.00;;;;;;;;5058058;28;11598;-82
2024/03/06 00:03:34;;;;;;;;;42.50;37.25;;;;;;;;5073305;28;11544;-81
2024/03/06 00:06:01;;;;;;;;;39.50;37.00;;;;;;;;5071251;28;11600;-81
2024/03/06 00:08:31;;;;;;;;;36.50;36.50;;;;;;;;5070320;28;11551;-81
2024/03/06 00:10:58;;;;;;;;;37.25;34.75;;;;;;;;5071317;28;11631;-81
2024/03/06 00:13:26;;;;;;;;;36.00;34.75;;;;;;;;5070022;28;11713;-83
2024/03/06 00:15:53;;;;;;;;;38.50;36.75;;;;;;;;5053854;28;11544;-82
2024/03/06 00:18:22;;;;;;;;;42.50;36.75;;;;;;;;5071835;28;11547;-81
2024/03/06 00:20:49;;;;;;;;;38.50;35.50;;;;;;;;5074009;28;11564;-82
2024/03/06 00:23:16;;;;;;;;;39.50;36.75;;;;;;;;5054978;28;11563;-83
2024/03/06 00:25:44;;;;;;;;;39.50;36.50;;;;;;;;5055633;28;11546;-81
2024/03/06 00:28:11;;;;;;;;;39.00;36.00;;;;;;;;5062881;28;11605;-82
2024/03/06 00:30:39;;;;;;;;;37.50;35.00;;;;;;;;5073880;28;11584;-82
2024/03/06 00:33:06;;;;;;;;;38.00;37.25;;;;;;;;5068530;28;11584;-83
2024/03/06 00:35:35;;;;;;;;;35.75;35.75;;;;;;;;5063424;28;11562;-83
2024/03/06 00:38:02;;;;;;;;;45.50;41.75;;;;;;;;5066955;28;11614;-85
2024/03/06 00:40:31;;;;;;;;;38.00;35.25;;;;;;;;5051367;28;11605;-83
2024/03/06 00:42:59;;;;;;;;;38.00;35.00;;;;;;;;5056755;28;11958;-84
2024/03/06 00:45:26;;;;;;;;;35.25;34.50;;;;;;;;5069826;28;11561;-83
2024/03/06 00:47:53;;;;;;;;;37.75;35.00;;;;;;;;5056262;28;11638;-83
2024/03/06 00:50:24;;;;;;;;;37.75;37.00;;;;;;;;5056397;28;11545;-82
2024/03/06 00:53:02;;;;;;;;;35.75;35.75;;;;;;;;5069431;28;12308;-83
2024/03/06 00:55:30;;;;;;;;;34.75;33.00;;;;;;;;5056526;28;11547;-83
2024/03/06 00:57:57;;;;;;;;;29.75;28.00;;;;;;;;5061321;28;11601;-82
2024/03/06 01:00:26;;;;;;;;;35.00;29.75;;;;;;;;5066592;28;11381;-83
2024/03/06 01:02:53;;;;;;;;;34.50;32.75;;;;;;;;5072504;28;12353;-83
2024/03/06 01:05:21;;;;;;;;;35.50;35.25;;;;;;;;5054424;28;11655;-83
2024/03/06 01:07:54;;;;;;;;;37.25;29.75;;;;;;;;5071498;28;11588;-83
2024/03/06 01:10:22;;;;;;;;;30.50;29.00;;;;;;;;5069835;28;11689;-84
2024/03/06 01:12:49;;;;;;;;;29.50;29.50;;;;;;;;5069402;28;11573;-84
2024/03/06 01:15:17;;;;;;;;;30.50;28.75;;;;;;;;5068902;28;11534;-84
2024/03/06 01:17:44;;;;;;;;;28.25;28.25;;;;;;;;5068527;28;11540;-83
2024/03/06 01:20:12;;;;;;;;;38.00;34.25;;;;;;;;5068151;28;12304;-83
2024/03/06 01:22:39;;;;;;;;;30.50;29.25;;;;;;;;5068585;28;11589;-83
2024/03/06 01:25:09;;;;;;;;;26.75;26.75;;;;;;;;5068667;28;11567;-83
2024/03/06 01:27:36;;;;;;;;;25.75;24.00;;;;;;;;5068099;28;11577;-83
2024/03/06 01:30:05;;;;;;;;;23.25;21.75;;;;;;;;5067353;28;11655;-83
2024/03/06 01:32:33;;;;;;;;;27.50;21.75;;;;;;;;5068338;28;11542;-83
2024/03/06 01:35:00;;;;;;;;;22.50;22.50;;;;;;;;5068845;28;11655;-83
2024/03/06 01:37:30;;;;;;;;;24.00;21.50;;;;;;;;5067502;28;11556;-83
2024/03/06 01:39:57;;;;;;;;;21.00;21.00;;;;;;;;5068480;28;11539;-84
2024/03/06 01:42:26;;;;;;;;;20.25;18.00;;;;;;;;5068795;28;11538;-82
2024/03/06 01:44:53;;;;;;;;;24.75;21.50;;;;;;;;5069167;28;11525;-84
2024/03/06 01:47:21;;;;;;;;;20.75;18.50;;;;;;;;5068904;28;11661;-83
2024/03/06 01:49:48;;;;;;;;;22.50;20.75;;;;;;;;5067486;28;11525;-84
2024/03/06 01:52:17;;;;;;;;;15.00;11.00;;;;;;;;5066809;28;11531;-83
2024/03/06 01:54:44;;;;;;;;;12.75;10.25;;;;;;;;5066154;28;11527;-83
2024/03/06 01:57:13;;;;;;;;;11.50;11.50;;;;;;;;5068007;28;11601;-83
2024/03/06 01:59:43;;;;;;;;;13.25;13.25;;;;;;;;5061420;28;11580;-83
2024/03/06 02:02:11;;;;;;;;;10.50;10.50;;;;;;;;5067473;28;11462;-83
2024/03/06 02:04:43;;;;;;;;;12.50;12.50;;;;;;;;5075085;28;11477;-83
2024/03/06 02:07:11;;;;;;;;;14.75;12.25;;;;;;;;5075760;28;11655;-83
2024/03/06 02:09:40;;;;;;;;;17.75;15.50;;;;;;;;5071788;28;11549;-81
2024/03/06 02:12:10;;;;;;;;;14.75;14.75;;;;;;;;5073344;28;11541;-83
2024/03/06 02:14:42;;;;;;;;;19.25;16.50;;;;;;;;5076463;28;11510;-83
2024/03/06 02:17:09;;;;;;;;;18.75;18.75;;;;;;;;5082544;28;11578;-82
2024/03/06 02:19:41;;;;;;;;;15.50;14.50;;;;;;;;5073200;28;12386;-82
2024/03/06 02:22:10;;;;;;;;;23.75;20.50;;;;;;;;5060023;28;11714;-83
2024/03/06 02:24:37;;;;;;;;;12.00;12.00;;;;;;;;5052289;28;12321;-84
2024/03/06 02:27:05;;;;;;;;;17.50;17.50;;;;;;;;5040580;28;11532;-82
2024/03/06 02:29:33;;;;;;;;;15.00;15.00;;;;;;;;5067387;28;11685;-82
2024/03/06 02:32:02;;;;;;;;;20.50;19.25;;;;;;;;5067535;28;11517;-82
2024/03/06 02:34:30;;;;;;;;;22.75;21.00;;;;;;;;5067403;28;11516;-82
2024/03/06 02:36:57;;;;;;;;;23.50;22.25;;;;;;;;5068094;28;11669;-82
2024/03/06 02:39:26;;;;;;;;;24.50;18.00;;;;;;;;5054197;28;11538;-81
2024/03/06 02:41:53;;;;;;;;;22.50;22.00;;;;;;;;5068639;28;11541;-83
2024/03/06 02:44:20;;;;;;;;;24.50;19.25;;;;;;;;5058252;28;11660;-82
2024/03/06 02:46:49;;;;;;;;;26.75;24.00;;;;;;;;5070143;28;11666;-82
2024/03/06 02:49:17;;;;;;;;;26.50;22.50;;;;;;;;5075714;28;11620;-83
2024/03/06 02:51:44;;;;;;;;;30.00;27.75;;;;;;;;5074618;28;11538;-82
2024/03/06 02:54:12;;;;;;;;;25.00;24.00;;;;;;;;5055264;28;11653;-83
2024/03/06 02:56:40;;;;;;;;;23.25;23.25;;;;;;;;5071650;28;11560;-82
2024/03/06 02:59:08;;;;;;;;;23.00;19.00;;;;;;;;5071804;28;11576;-82
2024/03/06 03:01:35;;;;;;;;;25.00;19.50;;;;;;;;5070813;28;11515;-82
2024/03/06 03:04:02;;;;;;;;;26.50;24.75;;;;;;;;5071736;28;11969;-83
2024/03/06 03:06:30;;;;;;;;;20.25;18.50;;;;;;;;5070841;28;12150;-83
2024/03/06 03:08:57;;;;;;;;;18.00;18.00;;;;;;;;5072677;28;11573;-82
2024/03/06 03:11:24;;;;;;;;;17.25;15.75;;;;;;;;5071973;28;11672;-82
2024/03/06 03:13:53;;;;;;;;;19.75;18.00;;;;;;;;5073761;28;11541;-83
2024/03/06 03:16:21;;;;;;;;;17.75;17.25;;;;;;;;5073367;28;11522;-83
2024/03/06 03:18:48;;;;;;;;;15.00;14.00;;;;;;;;5071196;28;11537;-83
2024/03/06 03:21:16;;;;;;;;;16.00;14.75;;;;;;;;5071002;28;11519;-83
2024/03/06 03:23:43;;;;;;;;;19.00;19.00;;;;;;;;5071297;28;11528;-81
2024/03/06 03:26:11;;;;;;;;;17.00;14.50;;;;;;;;5071288;28;11511;-83
2024/03/06 03:28:40;;;;;;;;;16.00;16.00;;;;;;;;5070818;28;11561;-82
2024/03/06 03:31:10;;;;;;;;;19.00;19.00;;;;;;;;5058442;28;11455;-82
2024/03/06 03:33:38;;;;;;;;;17.00;15.00;;;;;;;;5070565;28;11654;-82
2024/03/06 03:36:06;;;;;;;;;14.00;14.00;;;;;;;;5071438;28;11583;-81
2024/03/06 03:38:35;;;;;;;;;19.75;16.75;;;;;;;;5069279;28;11582;-82
2024/03/06 03:41:04;;;;;;;;;14.50;12.50;;;;;;;;5071319;28;11543;-81
2024/03/06 03:43:32;;;;;;;;;23.75;22.00;;;;;;;;5053756;28;11540;-81
2024/03/06 03:46:00;;;;;;;;;19.25;16.50;;;;;;;;5071006;28;12380;-81
2024/03/06 03:48:28;;;;;;;;;15.50;15.50;;;;;;;;5073403;28;11625;-82
2024/03/06 03:50:56;;;;;;;;;17.00;16.75;;;;;;;;5074740;28;11624;-82
2024/03/06 03:53:23;;;;;;;;;18.00;14.25;;;;;;;;5074839;28;11515;-82
2024/03/06 03:55:50;;;;;;;;;21.00;19.25;;;;;;;;5075287;28;11530;-81
2024/03/06 03:58:17;;;;;;;;;19.25;18.50;;;;;;;;5074431;28;11536;-81
2024/03/06 04:00:45;;;;;;;;;19.25;19.25;;;;;;;;5073426;28;11502;-83
2024/03/06 04:03:12;;;;;;;;;23.50;19.25;;;;;;;;5073677;28;11536;-81
2024/03/06 04:05:41;;;;;;;;;18.25;18.25;;;;;;;;5071184;28;11662;-83
2024/03/06 04:08:08;;;;;;;;;2.00;0.00;;;;;;;;5070734;28;11581;-83
2024/03/06 04:10:35;;;;;;;;;20.25;16.25;;;;;;;;5070922;28;11468;-82
2024/03/06 04:13:03;;;;;;;;;18.25;18.25;;;;;;;;5069000;28;11655;-82
2024/03/06 04:15:31;;;;;;;;;22.25;21.00;;;;;;;;5070314;28;12385;-82
2024/03/06 04:17:58;;;;;;;;;20.00;16.50;;;;;;;;5046290;28;11519;-83
2024/03/06 04:20:25;;;;;;;;;15.50;15.50;;;;;;;;5062908;28;11551;-84
2024/03/06 04:22:54;;;;;;;;;23.00;22.50;;;;;;;;5069754;28;11536;-83
2024/03/06 04:25:23;;;;;;;;;21.75;21.25;;;;;;;;5070068;28;11536;-83
2024/03/06 04:27:56;;;;;;;;;21.00;18.50;;;;;;;;5057500;28;11523;-82
2024/03/06 04:30:24;;;;;;;;;26.50;22.25;;;;;;;;5069943;28;11479;-82
2024/03/06 04:32:52;;;;;;;;;24.00;20.50;;;;;;;;5072070;28;11545;-82
2024/03/06 04:35:18;;;;;;;;;20.50;18.50;;;;;;;;5073382;28;12319;-82
2024/03/06 04:37:45;;;;;;;;;26.50;24.75;;;;;;;;5071750;28;11627;-83
2024/03/06 04:40:17;;;;;;;;;24.00;23.25;;;;;;;;5056700;28;12319;-82
2024/03/06 04:42:47;;;;;;;;;29.00;27.00;;;;;;;;5070326;28;11543;-82
2024/03/06 04:45:16;;;;;;;;;30.50;27.00;;;;;;;;5069762;28;11600;-82
2024/03/06 04:47:46;;;;;;;;;34.50;30.25;;;;;;;;5060485;28;11540;-81
2024/03/06 04:50:17;;;;;;;;;27.50;27.50;;;;;;;;5067648;28;11550;-82
2024/03/06 04:52:44;;;;;;;;;25.00;21.00;;;;;;;;5069308;28;11548;-82
2024/03/06 04:55:20;;;;;;;;;24.00;21.00;;;;;;;;5068738;28;11652;-81
2024/03/06 04:57:47;;;;;;;;;22.50;22.00;;;;;;;;5068498;28;11524;-81
2024/03/06 05:00:15;;;;;;;;;25.00;22.75;;;;;;;;5068762;28;11517;-82
2024/03/06 05:02:43;;;;;;;;;26.25;24.50;;;;;;;;5068083;28;11533;-81
2024/03/06 05:05:10;;;;;;;;;25.75;23.75;;;;;;;;5076369;28;11532;-81
2024/03/06 05:07:38;;;;;;;;;25.25;25.25;;;;;;;;5071286;28;12444;-81
2024/03/06 05:10:07;;;;;;;;;24.25;22.75;;;;;;;;5080115;28;12275;-81
2024/03/06 05:12:36;;;;;;;;;24.25;22.75;;;;;;;;5084877;28;11553;-81
2024/03/06 05:15:04;;;;;;;;;22.75;22.50;;;;;;;;5072264;28;12399;-82
2024/03/06 05:17:31;;;;;;;;;18.25;15.50;;;;;;;;5066935;28;11558;-81
2024/03/06 05:19:58;;;;;;;;;23.00;23.00;;;;;;;;5057982;28;11525;-80
2024/03/06 05:22:26;;;;;;;;;19.00;18.25;;;;;;;;5068028;28;11566;-80
2024/03/06 05:24:54;;;;;;;;;25.75;22.50;;;;;;;;5068245;28;11662;-80
2024/03/06 05:27:22;;;;;;;;;18.50;18.50;;;;;;;;5065893;28;11515;-80
2024/03/06 05:29:51;;;;;;;;;18.75;18.75;;;;;;;;5058649;28;11577;-80
2024/03/06 05:32:18;;;;;;;;;22.25;18.75;;;;;;;;5066143;28;11448;-79
2024/03/06 05:34:45;;;;;;;;;22.25;22.25;;;;;;;;5070957;28;11548;-79
2024/03/06 05:37:13;;;;;;;;;22.75;20.25;;;;;;;;5055105;28;11568;-80
2024/03/06 05:39:43;;;;;;;;;20.25;20.25;;;;;;;;5045622;28;11556;-80
2024/03/06 05:42:10;;;;;;;;;18.50;18.50;;;;;;;;5070845;28;11503;-79
2024/03/06 05:44:37;;;;;;;;;23.25;20.50;;;;;;;;5072716;28;11536;-80
2024/03/06 05:47:06;;;;;;;;;30.00;26.50;;;;;;;;5070866;28;11495;-80
2024/03/06 05:49:34;;;;;;;;;29.50;29.50;;;;;;;;5072139;28;12460;-81
2024/03/06 05:52:02;;;;;;;;;25.75;25.75;;;;;;;;5067916;28;11550;-81
2024/03/06 05:54:35;;;;;;;;;28.75;25.25;;;;;;;;5067624;28;11575;-81
2024/03/06 05:57:02;;;;;;;;;26.00;24.00;;;;;;;;5037964;28;11682;-81
2024/03/06 05:59:30;;;;;;;;;19.00;19.00;;;;;;;;5067813;28;12294;-80
2024/03/06 06:01:57;;;;;;;;;29.50;23.50;;;;;;;;5065773;28;11467;-81
2024/03/06 06:04:26;;;;;;;;;22.50;22.00;;;;;;;;5066615;28;11719;-81
2024/03/06 06:06:53;;;;;;;;;18.75;18.75;;;;;;;;5067960;28;11557;-80
2024/03/06 06:09:20;;;;;;;;;21.25;21.25;;;;;;;;5065399;28;11555;-81
2024/03/06 06:11:48;;;;;;;;;19.50;19.00;;;;;;;;5066191;28;11577;-81
2024/03/06 06:14:15;;;;;;;;;22.75;19.75;;;;;;;;5067611;28;11533;-78
2024/03/06 06:16:43;;;;;;;;;22.50;22.50;;;;;;;;5068642;28;11580;-81
2024/03/06 06:19:12;;;;;;;;;26.50;21.75;;;;;;;;5069624;28;11548;-78
2024/03/06 06:21:43;;;;;;;;;27.25;26.25;;;;;;;;5073655;28;11552;-79
2024/03/06 06:24:18;;;;;;;;;24.00;24.00;;;;;;;;5072891;28;11575;-78
2024/03/06 06:26:45;;;;;;;;;25.00;22.75;;;;;;;;5072226;28;11539;-81
2024/03/06 06:29:15;;;;;;;;;21.25;21.25;;;;;;;;5071867;28;11537;-80
2024/03/06 06:31:43;;;;;;;;;23.50;21.00;;;;;;;;5071763;28;11491;-80
2024/03/06 06:34:11;;;;;;;;;31.25;23.25;;;;;;;;5071670;28;11652;-80
2024/03/06 06:36:43;;;;;;;;;30.00;26.50;;;;;;;;5071930;28;11554;-79
2024/03/06 06:39:16;;;;;;;;;18.25;18.25;;;;;;;;5059208;28;11553;-82
2024/03/06 06:41:44;;;;;;;;;29.00;29.00;;;;;;;;5071220;28;11513;-81
2024/03/06 06:44:11;;;;;;;;;29.00;27.75;;;;;;;;5072161;28;11579;-80
2024/03/06 06:46:43;;;;;;;;;23.75;23.50;;;;;;;;5069932;28;11549;-80
2024/03/06 06:49:15;;;;;;;;;27.00;25.00;;;;;;;;5061734;28;11540;-83
2024/03/06 06:51:43;;;;;;;;;30.75;25.75;;;;;;;;5066545;28;11570;-83
2024/03/06 06:54:24;;;;;;;;;27.75;26.00;;;;;;;;5062185;28;11595;-81
2024/03/06 06:56:51;;;;;;;;;32.25;27.75;;;;;;;;5064740;28;11575;-81
2024/03/06 06:59:19;;;;;;;;;29.25;29.00;;;;;;;;5063503;28;11541;-82
2024/03/06 07:01:47;;;;;;;;;31.25;27.25;;;;;;;;5069651;28;11460;-81
2024/03/06 07:04:16;;;;;;;;;33.25;31.50;;;;;;;;5071299;28;11529;-81
2024/03/06 07:06:46;;;;;;;;;37.00;33.00;;;;;;;;5071670;28;11529;-79
2024/03/06 07:09:18;;;;;;;;;33.75;33.75;;;;;;;;5065888;28;11540;-81
2024/03/06 07:11:45;;;;;;;;;46.00;36.50;;;;;;;;5060557;28;11554;-80
2024/03/06 07:14:16;;;;;;;;;47.00;40.75;;;;;;;;5068513;28;12453;-79
2024/03/06 07:16:44;;;;;;;;;60.00;48.50;;;;;;;;5060727;28;11616;-81
2024/03/06 07:19:19;;;;;;;;;61.75;52.00;;;;;;;;5058527;28;11555;-81
2024/03/06 07:21:46;;;;;;;;;58.75;45.00;;;;;;;;5072042;28;11530;-79
2024/03/06 07:24:18;;;;;;;;;62.00;51.00;;;;;;;;5073364;28;11561;-80
2024/03/06 07:26:48;;;;;;;;;51.00;44.00;;;;;;;;5074171;28;11561;-79
2024/03/06 07:29:15;;;;;;;;;55.00;43.00;;;;;;;;5073609;28;11595;-78
2024/03/06 07:31:45;;;;;;;;;36.75;36.50;;;;;;;;5072550;28;11476;-78
2024/03/06 07:34:15;;;;;;;;;43.25;37.00;;;;;;;;5071837;28;11565;-80
2024/03/06 07:36:42;;;;;;;;;36.25;33.75;;;;;;;;5072347;28;11615;-79
2024/03/06 07:39:09;;;;;;;;;39.50;36.25;;;;;;;;5074838;28;11541;-79
2024/03/06 07:41:38;;;;;;;;;43.00;39.50;;;;;;;;5071007;28;11560;-79
2024/03/06 07:44:05;;;;;;;;;43.00;38.00;;;;;;;;5070043;28;11589;-79
2024/03/06 07:46:33;;;;;;;;;45.00;41.50;;;;;;;;5066248;28;11636;-78
2024/03/06 07:49:00;;;;;;;;;42.50;32.75;;;;;;;;5057793;28;11623;-78
2024/03/06 07:51:27;;;;;;;;;51.25;39.00;;;;;;;;5067965;28;11703;-78
2024/03/06 07:53:54;;;;;;;;;42.50;39.50;;;;;;;;5069196;28;11666;-78
2024/03/06 07:56:21;;;;;;;;;47.00;42.75;;;;;;;;5064194;28;11520;-80
2024/03/06 07:58:50;;;;;;;;;65.75;54.75;;;;;;;;5069915;28;11665;-77
2024/03/06 08:01:18;;;;;;;;;67.75;53.50;;;;;;;;5072700;28;11588;-77
2024/03/06 08:03:47;;;;;;;;;63.25;51.50;;;;;;;;5072144;28;11674;-75
2024/03/06 08:06:17;;;;;;;;;52.00;42.50;;;;;;;;5065926;28;11610;-78
2024/03/06 08:08:45;;;;;;;;;43.75;38.50;;;;;;;;5071077;28;11535;-77
2024/03/06 08:11:12;;;;;;;;;54.50;43.00;;;;;;;;5064701;28;11626;-77
2024/03/06 08:13:40;;;;;;;;;43.25;39.50;;;;;;;;5072715;28;12418;-80
2024/03/06 08:16:09;;;;;;;;;42.25;39.25;;;;;;;;5065049;28;11557;-78
2024/03/06 08:18:37;;;;;;;;;55.25;45.00;;;;;;;;5056373;28;12380;-79
2024/03/06 08:21:06;;;;;;;;;44.75;40.75;;;;;;;;5067336;28;11711;-78
2024/03/06 08:23:33;;;;;;;;;57.50;44.75;;;;;;;;5069336;28;11558;-80
2024/03/06 08:26:00;;;;;;;;;55.00;43.25;;;;;;;;5068930;28;12062;-78
2024/03/06 08:28:31;;;;;;;;;39.50;35.50;;;;;;;;5068675;28;11575;-77
2024/03/06 08:31:01;;;;;;;;;28.75;25.25;;;;;;;;5067735;28;11482;-79
2024/03/06 08:33:29;;;;;;;;;23.50;23.50;;;;;;;;5067687;28;11546;-78
2024/03/06 08:35:57;;;;;;;;;31.00;29.75;;;;;;;;5056501;28;11482;-77
2024/03/06 08:38:25;;;;;;;;;26.25;23.50;;;;;;;;5068692;28;11553;-78
2024/03/06 08:40:52;;;;;;;;;31.50;28.50;;;;;;;;5068798;28;11558;-77
2024/03/06 08:43:20;;;;;;;;;25.00;24.25;;;;;;;;5068710;28;11520;-79
2024/03/06 08:45:47;;;;;;;;;27.00;24.00;;;;;;;;5068896;28;11471;-77
2024/03/06 08:48:16;;;;;;;;;33.50;26.75;;;;;;;;5069062;28;11475;-80
2024/03/06 08:50:45;;;;;;;;;25.25;25.25;;;;;;;;5069184;28;11608;-79
2024/03/06 08:53:13;;;;;;;;;26.75;22.50;;;;;;;;5068380;28;11512;-81
2024/03/06 08:55:41;;;;;;;;;28.00;24.50;;;;;;;;5069182;28;11517;-78
2024/03/06 08:58:08;;;;;;;;;26.25;26.25;;;;;;;;5068279;28;11952;-77
2024/03/06 09:00:37;;;;;;;;;32.25;31.25;;;;;;;;5067514;28;11564;-78
2024/03/06 09:03:05;;;;;;;;;30.75;27.75;;;;;;;;5068208;28;11607;-80
2024/03/06 09:05:32;;;;;;;;;35.25;32.75;;;;;;;;5068986;28;11600;-81
2024/03/06 09:08:01;;;;;;;;;38.50;34.25;;;;;;;;5067625;28;11666;-81
2024/03/06 09:10:28;;;;;;;;;30.75;27.50;;;;;;;;5069185;28;11550;-81
2024/03/06 09:12:55;;;;;;;;;30.25;27.75;;;;;;;;5070234;28;11549;-84
2024/03/06 09:15:24;;;;;;;;;26.00;25.25;;;;;;;;5070889;28;11503;-80
2024/03/06 09:17:58;;;;;;;;;48.75;41.75;;;;;;;;5069498;28;11534;-80
2024/03/06 09:20:31;;;;;;;;;29.75;28.75;;;;;;;;5071653;28;11678;-80
2024/03/06 09:23:00;;;;;;;;;20.00;20.00;;;;;;;;5060246;28;11488;-80
2024/03/06 09:25:29;;;;;;;;;25.00;23.00;;;;;;;;5072204;28;11599;-79
2024/03/06 09:28:07;;;;;;;;;;;;;;;;;;;;;
2024/03/06 09:30:36;;;;;;;;;25.00;25.00;;;;;;;;5069908;28;11442;-80
2024/03/06 09:33:03;;;;;;;;;26.75;25.00;;;;;;;;5067834;28;11637;-79
2024/03/06 09:35:32;;;;;;;;;25.50;25.50;;;;;;;;5067521;28;11496;-79
2024/03/06 09:38:02;;;;;;;;;47.75;40.50;;;;;;;;5067998;28;11553;-79
2024/03/06 09:40:31;;;;;;;;;31.75;28.50;;;;;;;;5065046;28;11562;-79
2024/03/06 09:42:58;;;;;;;;;29.00;26.50;;;;;;;;5061879;28;11598;-76
2024/03/06 09:45:28;;;;;;;;;31.00;26.50;;;;;;;;5067698;28;11576;-79
2024/03/06 09:47:55;;;;;;;;;23.75;23.75;;;;;;;;5067776;28;11512;-78
2024/03/06 09:50:26;;;;;;;;;28.75;22.75;;;;;;;;5066857;28;11291;-79
2024/03/06 09:52:55;;;;;;;;;27.75;24.00;;;;;;;;5067445;28;11202;-79
2024/03/06 09:55:30;;;;;;;;;19.25;19.00;;;;;;;;5066517;28;11256;-77
2024/03/06 09:57:57;;;;;;;;;20.25;18.25;;;;;;;;5066932;28;10945;-79
2024/03/06 10:00:26;;;;;;;;;26.25;24.00;;;;;;;;5057034;28;10863;-78
2024/03/06 10:03:00;;;;;;;;;16.50;16.50;;;;;;;;5067563;28;10978;-80
2024/03/06 10:05:31;;;;;;;;;19.00;19.00;;;;;;;;5068626;28;10647;-81
2024/03/06 10:08:03;;;;;;;;;18.00;16.50;;;;;;;;5068733;28;10763;-81
2024/03/06 10:10:32;;;;;;;;;19.50;16.50;;;;;;;;5072450;28;10691;-81
2024/03/06 10:13:00;;;;;;;;;28.50;22.00;;;;;;;;5082523;28;10690;-81
2024/03/06 10:15:28;;;;;;;;;17.00;15.25;;;;;;;;5062751;28;10614;-80
2024/03/06 10:18:12;;;;;;;;;17.75;16.25;;;;;;;;5064234;28;10333;-81
2024/03/06 10:20:41;;;;;;;;;12.00;12.00;;;;;;;;5067925;28;10005;-81
2024/03/06 10:23:10;;;;;;;;;10.25;10.25;;;;;;;;5067848;28;10016;-81
2024/03/06 10:25:40;;;;;;;;;14.00;12.00;;;;;;;;5066948;28;9860;-81
2024/03/06 10:28:08;;;;;;;;;15.00;15.00;;;;;;;;5067682;28;9787;-81
2024/03/06 10:30:41;;;;;;;;;9.50;9.50;;;;;;;;5067558;28;9712;-80
2024/03/06 10:33:09;;;;;;;;;9.00;9.00;;;;;;;;5067317;28;9542;-80
2024/03/06 10:35:38;;;;;;;;;12.00;12.00;;;;;;;;5066695;28;9417;-81
2024/03/06 10:38:06;;;;;;;;;9.33;9.33;;;;;;;;5067775;28;9433;-80
2024/03/06 10:40:42;;;;;;;;;11.67;9.00;;;;;;;;5067319;28;9383;-79
2024/03/06 10:43:10;;;;;;;;;10.00;9.33;;;;;;;;5068284;28;9290;-80
2024/03/06 10:45:43;;;;;;;;;9.67;9.00;;;;;;;;5067614;28;10118;-81
2024/03/06 10:48:14;;;;;;;;;11.33;10.67;;;;;;;;5070512;28;9645;-80
2024/03/06 10:50:44;;;;;;;;;17.00;14.00;;;;;;;;5057050;28;9418;-81
2024/03/06 10:53:13;;;;;;;;;9.00;9.00;;;;;;;;5067163;28;9285;-81
2024/03/06 10:55:44;;;;;;;;;11.00;9.00;;;;;;;;5068324;28;9331;-79
2024/03/06 10:58:12;;;;;;;;;6.33;5.00;;;;;;;;5067865;28;9343;-80
2024/03/06 11:00:40;;;;;;;;;10.00;10.00;;;;;;;;5068718;28;9005;-81
2024/03/06 11:03:13;;;;;;;;;11.33;11.33;;;;;;;;5069427;28;9193;-80
2024/03/06 11:05:41;;;;;;;;;7.00;7.00;;;;;;;;5070675;28;9196;-81
2024/03/06 11:08:13;;;;;;;;;10.33;9.33;;;;;;;;5075525;28;9282;-85
2024/03/06 11:10:42;;;;;;;;;8.00;8.00;;;;;;;;5074201;28;9253;-79
2024/03/06 11:13:22;;;;;;;;;8.33;7.67;;;;;;;;5062230;28;9270;-82
2024/03/06 11:15:50;;;;;;;;;9.00;8.00;;;;;;;;5075002;28;9355;-80
2024/03/06 11:18:41;;;;;;;;;9.33;8.00;;;;;;;;5068004;28;9475;-80
2024/03/06 11:21:30;;;;;;;;;5.25;4.75;;;;;;;;5060605;28;9341;-80
2024/03/06 11:24:22;;;;;;;;;15.67;10.67;;;;;;;;5068789;28;9671;-80
2024/03/06 11:26:59;;;;;;;;;7.00;7.00;;;;;;;;5063421;28;9499;-80
2024/03/06 11:29:29;;;;;;;;;10.25;9.00;;;;;;;;5058099;28;9641;-80
2024/03/06 11:32:02;;;;;;;;;13.25;11.50;;;;;;;;5073094;28;9648;-79
2024/03/06 11:34:32;;;;;;;;;13.75;12.75;;;;;;;;5054159;28;9598;-80
2024/03/06 11:37:00;;;;;;;;;19.00;16.25;;;;;;;;5057781;28;9563;-81
2024/03/06 11:39:36;;;;;;;;;31.00;27.75;;;;;;;;5052006;28;10036;-81
2024/03/06 11:42:08;;;;;;;;;8.75;7.00;;;;;;;;5066399;28;10247;-78
2024/03/06 11:44:36;;;;;;;;;6.75;6.75;;;;;;;;5062276;28;9653;-79
2024/03/06 11:47:09;;;;;;;;;31.25;29.25;;;;;;;;5062273;28;9555;-78
2024/03/06 11:49:42;;;;;;;;;13.75;11.50;;;;;;;;5055040;28;11136;-81
2024/03/06 11:52:12;;;;;;;;;36.50;32.75;;;;;;;;5075189;28;9761;-81
2024/03/06 11:54:39;;;;;;;;;8.50;6.25;;;;;;;;5066760;28;10601;-82
2024/03/06 11:57:10;;;;;;;;;19.25;14.25;;;;;;;;5072302;28;9816;-81
2024/03/06 11:59:39;;;;;;;;;25.25;25.00;;;;;;;;5069931;28;10258;-81
2024/03/06 12:02:10;;;;;;;;;19.00;19.00;;;;;;;;5054662;28;10738;-81
2024/03/06 12:04:37;;;;;;;;;22.25;21.00;;;;;;;;5065255;28;9788;-80
2024/03/06 12:07:06;;;;;;;;;24.00;24.00;;;;;;;;5069206;28;10073;-80
2024/03/06 12:09:37;;;;;;;;;22.00;22.00;;;;;;;;5069390;28;10113;-80
2024/03/06 12:12:06;;;;;;;;;7.75;7.50;;;;;;;;5069101;28;10159;-80
2024/03/06 12:14:41;;;;;;;;;9.75;9.75;;;;;;;;5069013;28;9537;-82
2024/03/06 12:17:14;;;;;;;;;12.75;12.75;;;;;;;;5061560;28;9665;-80
2024/03/06 12:19:44;;;;;;;;;15.75;15.75;;;;;;;;5069147;28;9782;-84
2024/03/06 12:22:12;;;;;;;;;16.75;16.75;;;;;;;;5068795;28;9967;-80
2024/03/06 12:24:40;;;;;;;;;8.75;8.75;;;;;;;;5070272;28;9898;-82
2024/03/06 12:27:08;;;;;;;;;6.00;6.00;;;;;;;;5068659;28;9618;-81
2024/03/06 12:29:38;;;;;;;;;13.25;12.00;;;;;;;;5057966;28;9569;-81
2024/03/06 12:32:06;;;;;;;;;18.25;18.00;;;;;;;;5068291;28;9716;-80
2024/03/06 12:34:33;;;;;;;;;7.00;7.00;;;;;;;;5066292;28;9927;-81
2024/03/06 12:37:10;;;;;;;;;13.25;13.25;;;;;;;;5068080;28;9640;-83
2024/03/06 12:39:37;;;;;;;;;7.00;7.00;;;;;;;;5069114;28;9894;-81
2024/03/06 12:42:06;;;;;;;;;18.50;18.50;;;;;;;;5069146;28;9640;-78
2024/03/06 12:44:33;;;;;;;;;6.00;6.00;;;;;;;;5069583;28;9772;-85
2024/03/06 12:47:02;;;;;;;;;13.25;13.25;;;;;;;;5068213;28;9564;-84
2024/03/06 12:49:29;;;;;;;;;9.33;7.33;;;;;;;;5070493;28;9616;-80
2024/03/06 12:52:03;;;;;;;;;7.33;6.00;;;;;;;;5069534;28;9317;-81
2024/03/06 12:54:30;;;;;;;;;8.67;8.67;;;;;;;;5073067;28;9406;-83
2024/03/06 12:56:57;;;;;;;;;4.67;4.67;;;;;;;;5076349;28;9385;-78
2024/03/06 12:59:24;;;;;;;;;5.33;5.33;;;;;;;;5076979;28;9071;-77
2024/03/06 13:01:54;;;;;;;;;3.67;3.67;;;;;;;;5078910;28;9125;-80
2024/03/06 13:04:23;;;;;;;;;24.00;18.67;;;;;;;;5074398;28;9044;-79
2024/03/06 13:06:50;;;;;;;;;2.50;2.50;;;;;;;;5075603;28;9413;-79
2024/03/06 13:09:17;;;;;;;;;5.00;5.00;;;;;;;;5077652;28;8844;-78
2024/03/06 13:11:44;;;;;;;;;3.75;3.00;;;;;;;;5076369;28;9116;-80
2024/03/06 13:14:12;;;;;;;;;22.50;22.50;;;;;;;;5069965;28;8861;-80
2024/03/06 13:16:40;;;;;;;;;13.33;9.00;;;;;;;;5069546;28;9549;-77
2024/03/06 13:19:11;;;;;;;;;1.50;1.00;;;;;;;;5054870;28;9167;-78
2024/03/06 13:21:40;;;;;;;;;9.00;8.67;;;;;;;;5067910;28;9619;-79
2024/03/06 13:24:10;;;;;;;;;7.67;7.67;;;;;;;;5068330;28;9221;-77
2024/03/06 13:26:37;;;;;;;;;5.00;5.00;;;;;;;;5068306;28;9105;-78
2024/03/06 13:29:06;;;;;;;;;4.00;4.00;;;;;;;;5067005;28;8845;-80
2024/03/06 13:31:34;;;;;;;;;2.50;2.50;;;;;;;;5067033;28;8882;-78
2024/03/06 13:34:03;;;;;;;;;2.50;2.50;;;;;;;;5066525;28;8864;-82
2024/03/06 13:36:30;;;;;;;;;5.75;4.75;;;;;;;;5068643;28;8874;-81
2024/03/06 13:38:59;;;;;;;;;4.00;4.00;;;;;;;;5067414;28;8864;-81
2024/03/06 13:41:26;;;;;;;;;4.00;4.00;;;;;;;;5067747;28;8870;-82
2024/03/06 13:43:53;;;;;;;;;10.00;8.33;;;;;;;;5068283;28;8860;-79
2024/03/06 13:46:21;;;;;;;;;5.67;5.67;;;;;;;;5068994;28;9011;-82
2024/03/06 13:48:48;;;;;;;;;3.00;3.00;;;;;;;;5067257;28;9055;-77
2024/03/06 13:51:16;;;;;;;;;2.75;2.75;;;;;;;;5068035;28;9616;-77
2024/03/06 13:53:44;;;;;;;;;4.25;4.25;;;;;;;;5067533;28;8857;-77
2024/03/06 13:56:12;;;;;;;;;1.00;1.00;;;;;;;;5067104;28;8841;-77
2024/03/06 13:58:39;;;;;;;;;0.50;0.50;;;;;;;;5056190;28;8833;-76
2024/03/06 14:01:06;;;;;;;;;2.00;2.00;;;;;;;;5067112;28;8797;-79
2024/03/06 14:03:34;;;;;;;;;1.00;1.00;;;;;;;;5068829;28;8841;-78
2024/03/06 14:06:01;;;;;;;;;1.00;1.00;;;;;;;;5065961;28;8856;-78
2024/03/06 14:08:28;;;;;;;;;0.00;0.00;;;;;;;;5068061;28;8942;-79
2024/03/06 14:10:56;;;;;;;;;1.00;1.00;;;;;;;;5067707;28;8882;-76
2024/03/06 14:13:30;;;;;;;;;1.00;1.00;;;;;;;;5068389;28;9022;-77
2024/03/06 14:16:00;;;;;;;;;0.00;0.00;;;;;;;;5066721;28;8928;-78
2024/03/06 14:18:27;;;;;;;;;1.67;1.67;;;;;;;;5058857;28;9119;-78
2024/03/06 14:20:54;;;;;;;;;3.00;2.67;;;;;;;;5064222;28;9178;-77
2024/03/06 14:23:24;;;;;;;;;3.00;3.00;;;;;;;;5067944;28;9427;-79
2024/03/06 14:25:51;;;;;;;;;4.25;4.25;;;;;;;;5067411;28;9407;-79
2024/03/06 14:28:18;;;;;;;;;3.00;3.00;;;;;;;;5067710;28;9477;-79
2024/03/06 14:30:50;;;;;;;;;5.50;5.50;;;;;;;;5066806;28;9410;-76
2024/03/06 14:33:18;;;;;;;;;5.00;5.00;;;;;;;;5067704;28;9545;-78
2024/03/06 14:35:49;;;;;;;;;1.00;1.00;;;;;;;;5067468;28;9610;-79